sensor_id;sensor_type;location;lat;lon;timestamp;pressure;altitude;pressure_sealevel;temperature;humidity
26443;BME280;5563;52.296;6.806;2023-02-20T00:00:09;102421.16;;;4.60;88.11
26443;BME280;5563;52.296;6.806;2023-02-20T00:02:54;102428.13;;;4.62;88.06
26443;BME280;5563;52.296;6.806;2023-02-20T00:05:29;102423.81;;;4.60;88.18
26443;BME280;5563;52.296;6.806;2023-02-20T00:07:56;102444.59;;;4.72;88.05
26443;BME280;5563;52.296;6.806;2023-02-20T00:10:25;102415.22;;;4.53;88.08
26443;BME280;5563;52.296;6.806;2023-02-20T00:13:00;102445.47;;;4.71;88.22
26443;BME280;5563;52.296;6.806;2023-02-20T00:15:34;102431.38;;;4.70;88.16
26443;BME280;5563;52.296;6.806;2023-02-20T00:18:08;102402.94;;;4.51;88.18
26443;BME280;5563;52.296;6.806;2023-02-20T00:20:36;102399.31;;;4.55;88.12
26443;BME280;5563;52.296;6.806;2023-02-20T00:23:11;102411.41;;;4.62;88.21
26443;BME280;5563;52.296;6.806;2023-02-20T00:25:38;102424.38;;;4.69;88.10
26443;BME280;5563;52.296;6.806;2023-02-20T00:28:13;102373.91;;;4.51;88.11
26443;BME280;5563;52.296;6.806;2023-02-20T00:30:40;102380.59;;;4.62;88.20
26443;BME280;5563;52.296;6.806;2023-02-20T00:33:15;102403.09;;;4.74;87.86
26443;BME280;5563;52.296;6.806;2023-02-20T00:35:44;102383.13;;;4.65;87.70
26443;BME280;5563;52.296;6.806;2023-02-20T00:38:18;102375.38;;;4.61;87.75
26443;BME280;5563;52.296;6.806;2023-02-20T00:40:45;102368.44;;;4.57;87.85
26443;BME280;5563;52.296;6.806;2023-02-20T00:43:21;102363.97;;;4.59;87.73
26443;BME280;5563;52.296;6.806;2023-02-20T00:45:49;102354.34;;;4.56;87.89
26443;BME280;5563;52.296;6.806;2023-02-20T00:48:23;102339.63;;;4.49;88.02
26443;BME280;5563;52.296;6.806;2023-02-20T00:50:50;102356.72;;;4.65;88.12
26443;BME280;5563;52.296;6.806;2023-02-20T00:53:17;102342.59;;;4.66;87.83
26443;BME280;5563;52.296;6.806;2023-02-20T00:55:53;102371.22;;;4.80;87.65
26443;BME280;5563;52.296;6.806;2023-02-20T00:58:20;102366.75;;;4.82;87.80
26443;BME280;5563;52.296;6.806;2023-02-20T01:00:57;102319.91;;;4.61;87.44
26443;BME280;5563;52.296;6.806;2023-02-20T01:03:37;102361.25;;;4.88;87.54
26443;BME280;5563;52.296;6.806;2023-02-20T01:06:11;102343.16;;;4.76;87.60
26443;BME280;5563;52.296;6.806;2023-02-20T01:08:38;102315.22;;;4.69;87.36
26443;BME280;5563;52.296;6.806;2023-02-20T01:11:12;102307.16;;;4.73;87.26
26443;BME280;5563;52.296;6.806;2023-02-20T01:13:39;102316.53;;;4.82;87.21
26443;BME280;5563;52.296;6.806;2023-02-20T01:16:12;102311.38;;;4.77;87.21
26443;BME280;5563;52.296;6.806;2023-02-20T01:18:40;102313.63;;;4.89;87.36
26443;BME280;5563;52.296;6.806;2023-02-20T01:21:14;102326.53;;;4.98;87.60
26443;BME280;5563;52.296;6.806;2023-02-20T01:23:51;102299.56;;;4.89;87.19
26443;BME280;5563;52.296;6.806;2023-02-20T01:26:25;102282.00;;;4.88;87.36
26443;BME280;5563;52.296;6.806;2023-02-20T01:28:58;102261.03;;;4.82;87.16
26443;BME280;5563;52.296;6.806;2023-02-20T01:31:26;102270.50;;;4.89;87.15
26443;BME280;5563;52.296;6.806;2023-02-20T01:34:00;102262.44;;;4.92;87.12
26443;BME280;5563;52.296;6.806;2023-02-20T01:36:26;102291.00;;;5.07;86.97
26443;BME280;5563;52.296;6.806;2023-02-20T01:39:00;102268.44;;;4.97;87.14
26443;BME280;5563;52.296;6.806;2023-02-20T01:41:27;102256.47;;;4.87;87.15
26443;BME280;5563;52.296;6.806;2023-02-20T01:43:54;102256.47;;;4.87;87.18
26443;BME280;5563;52.296;6.806;2023-02-20T01:49:04;102266.53;;;5.00;87.29
26443;BME280;5563;52.296;6.806;2023-02-20T01:51:35;102218.22;;;4.72;87.46
26443;BME280;5563;52.296;6.806;2023-02-20T01:54:15;102215.69;;;4.69;87.40
26443;BME280;5563;52.296;6.806;2023-02-20T01:56:46;102223.19;;;4.81;87.74
26443;BME280;5563;52.296;6.806;2023-02-20T01:59:24;102206.84;;;4.70;87.70
26443;BME280;5563;52.296;6.806;2023-02-20T02:02:01;102199.91;;;4.68;87.70
26443;BME280;5563;52.296;6.806;2023-02-20T02:04:36;102215.56;;;4.72;87.81
26443;BME280;5563;52.296;6.806;2023-02-20T02:07:28;102205.19;;;4.68;88.09
26443;BME280;5563;52.296;6.806;2023-02-20T02:10:11;102204.50;;;4.63;87.87
26443;BME280;5563;52.296;6.806;2023-02-20T02:12:48;102217.31;;;4.73;88.38
26443;BME280;5563;52.296;6.806;2023-02-20T02:15:23;102203.31;;;4.71;88.30
26443;BME280;5563;52.296;6.806;2023-02-20T02:18:15;102214.31;;;4.84;87.91
26443;BME280;5563;52.296;6.806;2023-02-20T02:21:16;102208.09;;;4.85;88.13
26443;BME280;5563;52.296;6.806;2023-02-20T02:32:28;102202.66;;;4.89;88.26
26443;BME280;5563;52.296;6.806;2023-02-20T02:35:20;102164.56;;;4.70;88.35
26443;BME280;5563;52.296;6.806;2023-02-20T02:38:09;102187.81;;;4.85;88.31
26443;BME280;5563;52.296;6.806;2023-02-20T02:41:21;102198.19;;;4.91;88.33
26443;BME280;5563;52.296;6.806;2023-02-20T02:44:01;102170.47;;;4.78;88.28
26443;BME280;5563;52.296;6.806;2023-02-20T02:46:56;102167.75;;;4.80;88.23
26443;BME280;5563;52.296;6.806;2023-02-20T02:49:52;102151.28;;;4.73;88.31
26443;BME280;5563;52.296;6.806;2023-02-20T02:52:29;102146.75;;;4.77;88.28
26443;BME280;5563;52.296;6.806;2023-02-20T02:55:27;102168.25;;;4.91;88.43
26443;BME280;5563;52.296;6.806;2023-02-20T02:57:55;102132.19;;;4.65;88.50
26443;BME280;5563;52.296;6.806;2023-02-20T03:00:46;102169.00;;;4.94;88.30
26443;BME280;5563;52.296;6.806;2023-02-20T03:03:36;102130.13;;;4.73;88.35
26443;BME280;5563;52.296;6.806;2023-02-20T03:06:18;102138.63;;;4.81;88.15
26443;BME280;5563;52.296;6.806;2023-02-20T03:08:53;102140.13;;;4.88;88.00
26443;BME280;5563;52.296;6.806;2023-02-20T03:11:35;102150.50;;;4.94;88.39
26443;BME280;5563;52.296;6.806;2023-02-20T03:14:09;102161.69;;;5.01;88.18
26443;BME280;5563;52.296;6.806;2023-02-20T03:19:47;102128.94;;;4.82;88.14
26443;BME280;5563;52.296;6.806;2023-02-20T03:22:28;102137.56;;;4.87;88.30
26443;BME280;5563;52.296;6.806;2023-02-20T03:25:16;102121.00;;;4.82;88.22
26443;BME280;5563;52.296;6.806;2023-02-20T03:28:00;102153.94;;;4.96;88.19
26443;BME280;5563;52.296;6.806;2023-02-20T03:31:06;102141.88;;;4.89;88.40
26443;BME280;5563;52.296;6.806;2023-02-20T03:33:46;102157.28;;;5.01;88.42
26443;BME280;5563;52.296;6.806;2023-02-20T03:36:53;102141.97;;;4.86;88.53
26443;BME280;5563;52.296;6.806;2023-02-20T03:39:45;102131.72;;;4.77;88.57
26443;BME280;5563;52.296;6.806;2023-02-20T03:42:42;102147.16;;;4.89;88.78
26443;BME280;5563;52.296;6.806;2023-02-20T03:45:32;102166.00;;;5.03;88.54
26443;BME280;5563;52.296;6.806;2023-02-20T03:50:47;102144.53;;;4.89;88.79
26443;BME280;5563;52.296;6.806;2023-02-20T03:53:22;102166.69;;;5.08;88.98
26443;BME280;5563;52.296;6.806;2023-02-20T03:55:54;102136.25;;;4.98;88.96
26443;BME280;5563;52.296;6.806;2023-02-20T03:58:33;102130.09;;;4.98;88.82
26443;BME280;5563;52.296;6.806;2023-02-20T04:01:12;102151.31;;;5.19;88.65
26443;BME280;5563;52.296;6.806;2023-02-20T04:03:57;102130.66;;;5.06;88.88
26443;BME280;5563;52.296;6.806;2023-02-20T04:06:28;102151.19;;;5.22;89.02
26443;BME280;5563;52.296;6.806;2023-02-20T04:09:10;102105.31;;;5.00;88.88
26443;BME280;5563;52.296;6.806;2023-02-20T04:11:44;102125.72;;;5.20;88.93
26443;BME280;5563;52.296;6.806;2023-02-20T04:14:21;102107.63;;;5.09;89.06
26443;BME280;5563;52.296;6.806;2023-02-20T04:16:51;102093.66;;;5.06;88.79
26443;BME280;5563;52.296;6.806;2023-02-20T04:19:29;102111.81;;;5.15;88.99
26443;BME280;5563;52.296;6.806;2023-02-20T04:22:06;102094.25;;;5.14;89.06
26443;BME280;5563;52.296;6.806;2023-02-20T04:24:47;102099.47;;;5.15;88.89
26443;BME280;5563;52.296;6.806;2023-02-20T04:27:19;102118.91;;;5.36;89.02
26443;BME280;5563;52.296;6.806;2023-02-20T04:29:53;102084.47;;;5.16;88.91
26443;BME280;5563;52.296;6.806;2023-02-20T04:32:22;102080.09;;;5.15;89.02
26443;BME280;5563;52.296;6.806;2023-02-20T04:34:50;102093.75;;;5.26;89.17
26443;BME280;5563;52.296;6.806;2023-02-20T04:37:24;102104.88;;;5.34;89.14
26443;BME280;5563;52.296;6.806;2023-02-20T04:39:58;102101.41;;;5.33;88.78
26443;BME280;5563;52.296;6.806;2023-02-20T04:42:32;102087.66;;;5.24;88.88
26443;BME280;5563;52.296;6.806;2023-02-20T04:45:02;102096.22;;;5.30;88.76
26443;BME280;5563;52.296;6.806;2023-02-20T04:47:36;102101.28;;;5.36;88.87
26443;BME280;5563;52.296;6.806;2023-02-20T04:50:03;102095.09;;;5.36;88.90
26443;BME280;5563;52.296;6.806;2023-02-20T04:52:37;102093.13;;;5.41;88.91
26443;BME280;5563;52.296;6.806;2023-02-20T04:55:05;102074.69;;;5.39;89.14
26443;BME280;5563;52.296;6.806;2023-02-20T04:57:42;102118.94;;;5.58;89.17
26443;BME280;5563;52.296;6.806;2023-02-20T05:00:16;102117.09;;;5.60;88.87
26443;BME280;5563;52.296;6.806;2023-02-20T05:02:52;102068.78;;;5.33;88.90
26443;BME280;5563;52.296;6.806;2023-02-20T05:05:29;102082.56;;;5.41;88.97
26443;BME280;5563;52.296;6.806;2023-02-20T05:08:10;102099.59;;;5.56;88.83
26443;BME280;5563;52.296;6.806;2023-02-20T05:10:49;102104.84;;;5.57;88.90
26443;BME280;5563;52.296;6.806;2023-02-20T05:13:17;102095.25;;;5.55;88.81
26443;BME280;5563;52.296;6.806;2023-02-20T05:15:50;102086.38;;;5.56;88.83
26443;BME280;5563;52.296;6.806;2023-02-20T05:18:28;102078.38;;;5.57;89.16
26443;BME280;5563;52.296;6.806;2023-02-20T05:21:02;102115.69;;;5.73;89.05
26443;BME280;5563;52.296;6.806;2023-02-20T05:23:47;102068.00;;;5.53;88.89
26443;BME280;5563;52.296;6.806;2023-02-20T05:26:21;102065.50;;;5.49;89.00
26443;BME280;5563;52.296;6.806;2023-02-20T05:29:12;102109.38;;;5.75;89.20
26443;BME280;5563;52.296;6.806;2023-02-20T05:31:46;102081.81;;;5.59;89.04
26443;BME280;5563;52.296;6.806;2023-02-20T05:34:16;102075.81;;;5.56;89.16
26443;BME280;5563;52.296;6.806;2023-02-20T05:36:50;102077.41;;;5.60;89.20
26443;BME280;5563;52.296;6.806;2023-02-20T05:39:17;102104.97;;;5.76;89.19
26443;BME280;5563;52.296;6.806;2023-02-20T05:41:51;102085.09;;;5.66;89.22
26443;BME280;5563;52.296;6.806;2023-02-20T05:44:24;102089.03;;;5.77;89.18
26443;BME280;5563;52.296;6.806;2023-02-20T05:46:58;102091.72;;;5.76;89.18
26443;BME280;5563;52.296;6.806;2023-02-20T05:49:33;102076.03;;;5.71;89.08
26443;BME280;5563;52.296;6.806;2023-02-20T05:52:02;102050.75;;;5.64;89.35
26443;BME280;5563;52.296;6.806;2023-02-20T05:54:37;102061.75;;;5.75;88.97
26443;BME280;5563;52.296;6.806;2023-02-20T05:57:20;102067.69;;;5.82;89.08
26443;BME280;5563;52.296;6.806;2023-02-20T05:59:54;102062.38;;;5.82;89.15
26443;BME280;5563;52.296;6.806;2023-02-20T06:05:51;102041.03;;;5.86;88.71
26443;BME280;5563;52.296;6.806;2023-02-20T06:08:25;102024.47;;;5.81;88.66
26443;BME280;5563;52.296;6.806;2023-02-20T06:10:52;102066.53;;;6.09;88.78
26443;BME280;5563;52.296;6.806;2023-02-20T06:13:29;102044.09;;;5.97;88.80
26443;BME280;5563;52.296;6.806;2023-02-20T06:16:03;102033.63;;;5.94;88.57
26443;BME280;5563;52.296;6.806;2023-02-20T06:18:30;102053.28;;;6.09;88.38
26443;BME280;5563;52.296;6.806;2023-02-20T06:21:09;102036.88;;;6.01;88.30
26443;BME280;5563;52.296;6.806;2023-02-20T06:23:37;102024.78;;;5.95;88.28
26443;BME280;5563;52.296;6.806;2023-02-20T06:26:14;102026.41;;;5.98;88.43
26443;BME280;5563;52.296;6.806;2023-02-20T06:28:42;102034.31;;;5.99;88.05
26443;BME280;5563;52.296;6.806;2023-02-20T06:31:25;102031.66;;;5.99;88.38
26443;BME280;5563;52.296;6.806;2023-02-20T06:33:53;102040.19;;;6.06;88.35
26443;BME280;5563;52.296;6.806;2023-02-20T06:36:30;102072.00;;;6.24;88.14
26443;BME280;5563;52.296;6.806;2023-02-20T06:38:58;102026.94;;;6.06;87.92
26443;BME280;5563;52.296;6.806;2023-02-20T06:41:35;102046.72;;;6.17;88.01
26443;BME280;5563;52.296;6.806;2023-02-20T06:44:02;102062.56;;;6.19;87.79
26443;BME280;5563;52.296;6.806;2023-02-20T06:46:36;102074.22;;;6.35;87.69
26443;BME280;5563;52.296;6.806;2023-02-20T06:49:03;102040.66;;;6.15;87.50
26443;BME280;5563;52.296;6.806;2023-02-20T06:51:32;102032.66;;;6.17;87.44
26443;BME280;5563;52.296;6.806;2023-02-20T06:54:06;102055.72;;;6.33;87.42
26443;BME280;5563;52.296;6.806;2023-02-20T06:56:37;102037.66;;;6.23;87.48
26443;BME280;5563;52.296;6.806;2023-02-20T06:59:11;102057.25;;;6.39;87.55
26443;BME280;5563;52.296;6.806;2023-02-20T07:01:40;102047.78;;;6.33;87.14
26443;BME280;5563;52.296;6.806;2023-02-20T07:04:24;102028.72;;;6.25;87.32
26443;BME280;5563;52.296;6.806;2023-02-20T07:06:54;102033.69;;;6.33;87.23
26443;BME280;5563;52.296;6.806;2023-02-20T07:09:28;102050.16;;;6.39;87.33
26443;BME280;5563;52.296;6.806;2023-02-20T07:11:55;102049.09;;;6.43;87.36
26443;BME280;5563;52.296;6.806;2023-02-20T07:14:29;102035.06;;;6.41;87.21
26443;BME280;5563;52.296;6.806;2023-02-20T07:16:56;102024.72;;;6.35;87.23
26443;BME280;5563;52.296;6.806;2023-02-20T07:19:30;102033.31;;;6.40;87.31
26443;BME280;5563;52.296;6.806;2023-02-20T07:22:04;102043.41;;;6.52;87.31
26443;BME280;5563;52.296;6.806;2023-02-20T07:24:31;102025.75;;;6.51;87.21
26443;BME280;5563;52.296;6.806;2023-02-20T07:27:08;102020.63;;;6.48;87.27
26443;BME280;5563;52.296;6.806;2023-02-20T07:29:39;102069.03;;;6.71;87.20
26443;BME280;5563;52.296;6.806;2023-02-20T07:32:14;102037.72;;;6.60;87.12
26443;BME280;5563;52.296;6.806;2023-02-20T07:34:46;102045.75;;;6.58;87.04
26443;BME280;5563;52.296;6.806;2023-02-20T07:37:30;102047.28;;;6.64;86.99
26443;BME280;5563;52.296;6.806;2023-02-20T07:39:58;102068.50;;;6.83;87.29
26443;BME280;5563;52.296;6.806;2023-02-20T07:42:32;102078.16;;;6.84;87.10
26443;BME280;5563;52.296;6.806;2023-02-20T07:44:59;102037.53;;;6.65;87.28
26443;BME280;5563;52.296;6.806;2023-02-20T07:47:33;102039.06;;;6.70;86.88
26443;BME280;5563;52.296;6.806;2023-02-20T07:50:00;102058.47;;;6.89;86.76
26443;BME280;5563;52.296;6.806;2023-02-20T07:52:37;102045.22;;;6.89;86.81
26443;BME280;5563;52.296;6.806;2023-02-20T07:55:04;102037.19;;;6.91;86.98
26443;BME280;5563;52.296;6.806;2023-02-20T07:57:38;102026.94;;;6.83;87.11
26443;BME280;5563;52.296;6.806;2023-02-20T08:00:06;102025.00;;;6.87;86.72
26443;BME280;5563;52.296;6.806;2023-02-20T08:02:40;102026.59;;;6.91;86.99
26443;BME280;5563;52.296;6.806;2023-02-20T08:05:20;102012.47;;;6.90;86.91
26443;BME280;5563;52.296;6.806;2023-02-20T08:08:09;102021.00;;;6.97;86.85
26443;BME280;5563;52.296;6.806;2023-02-20T08:10:43;102025.09;;;7.04;86.72
26443;BME280;5563;52.296;6.806;2023-02-20T08:13:10;102045.91;;;7.11;86.66
26443;BME280;5563;52.296;6.806;2023-02-20T08:15:37;102036.19;;;7.12;86.52
26443;BME280;5563;52.296;6.806;2023-02-20T08:18:17;102056.75;;;7.25;86.54
26443;BME280;5563;52.296;6.806;2023-02-20T08:20:49;102051.38;;;7.27;86.56
26443;BME280;5563;52.296;6.806;2023-02-20T08:23:24;102029.81;;;7.16;86.49
26443;BME280;5563;52.296;6.806;2023-02-20T08:25:58;102039.09;;;7.24;86.70
26443;BME280;5563;52.296;6.806;2023-02-20T08:28:28;102033.59;;;7.29;86.41
26443;BME280;5563;52.296;6.806;2023-02-20T08:31:02;102011.72;;;7.24;86.64
26443;BME280;5563;52.296;6.806;2023-02-20T08:33:29;102023.53;;;7.35;86.48
26443;BME280;5563;52.296;6.806;2023-02-20T08:36:06;102013.38;;;7.26;86.20
26443;BME280;5563;52.296;6.806;2023-02-20T08:38:37;102047.75;;;7.46;86.49
26443;BME280;5563;52.296;6.806;2023-02-20T08:41:12;102014.72;;;7.35;86.39
26443;BME280;5563;52.296;6.806;2023-02-20T08:43:46;102002.22;;;7.37;86.27
26443;BME280;5563;52.296;6.806;2023-02-20T08:46:22;102003.31;;;7.33;86.26
26443;BME280;5563;52.296;6.806;2023-02-20T08:48:49;102028.88;;;7.52;86.17
26443;BME280;5563;52.296;6.806;2023-02-20T08:51:23;102015.84;;;7.48;86.07
26443;BME280;5563;52.296;6.806;2023-02-20T08:53:58;102036.53;;;7.58;86.25
26443;BME280;5563;52.296;6.806;2023-02-20T08:56:25;101993.19;;;7.41;86.08
26443;BME280;5563;52.296;6.806;2023-02-20T08:58:59;101995.47;;;7.48;86.02
26443;BME280;5563;52.296;6.806;2023-02-20T09:01:26;101989.69;;;7.40;86.04
26443;BME280;5563;52.296;6.806;2023-02-20T09:04:06;102005.22;;;7.48;86.07
26443;BME280;5563;52.296;6.806;2023-02-20T09:06:41;102030.00;;;7.65;85.92
26443;BME280;5563;52.296;6.806;2023-02-20T09:09:14;102018.03;;;7.57;85.92
26443;BME280;5563;52.296;6.806;2023-02-20T09:11:43;102034.91;;;7.73;86.21
26443;BME280;5563;52.296;6.806;2023-02-20T09:14:17;102021.25;;;7.63;85.78
26443;BME280;5563;52.296;6.806;2023-02-20T09:16:44;102018.22;;;7.71;85.81
26443;BME280;5563;52.296;6.806;2023-02-20T09:19:18;102011.63;;;7.61;86.05
26443;BME280;5563;52.296;6.806;2023-02-20T09:21:53;102032.97;;;7.77;86.05
26443;BME280;5563;52.296;6.806;2023-02-20T09:24:20;102005.41;;;7.62;85.79
26443;BME280;5563;52.296;6.806;2023-02-20T09:26:54;102036.41;;;7.79;86.01
26443;BME280;5563;52.296;6.806;2023-02-20T09:29:23;102021.88;;;7.68;85.99
26443;BME280;5563;52.296;6.806;2023-02-20T09:31:57;102016.25;;;7.75;85.89
26443;BME280;5563;52.296;6.806;2023-02-20T09:34:24;102024.75;;;7.81;86.19
26443;BME280;5563;52.296;6.806;2023-02-20T09:36:59;102019.63;;;7.78;86.30
26443;BME280;5563;52.296;6.806;2023-02-20T09:39:29;102003.38;;;7.67;86.03
26443;BME280;5563;52.296;6.806;2023-02-20T09:45:00;102032.44;;;7.87;86.05
26443;BME280;5563;52.296;6.806;2023-02-20T09:50:35;102029.28;;;7.79;86.23
26443;BME280;5563;52.296;6.806;2023-02-20T09:53:44;102014.38;;;7.77;85.99
26443;BME280;5563;52.296;6.806;2023-02-20T09:56:18;102027.66;;;7.77;86.19
26443;BME280;5563;52.296;6.806;2023-02-20T09:58:59;102029.00;;;7.85;86.30
26443;BME280;5563;52.296;6.806;2023-02-20T10:01:33;102026.25;;;7.87;86.09
26443;BME280;5563;52.296;6.806;2023-02-20T10:04:25;102010.78;;;7.78;86.20
26443;BME280;5563;52.296;6.806;2023-02-20T10:07:03;102042.88;;;7.90;86.38
26443;BME280;5563;52.296;6.806;2023-02-20T10:09:42;102024.59;;;7.84;86.09
26443;BME280;5563;52.296;6.806;2023-02-20T10:20:55;102046.72;;;8.02;85.62
26443;BME280;5563;52.296;6.806;2023-02-20T10:26:11;102053.72;;;8.20;85.94
26443;BME280;5563;52.296;6.806;2023-02-20T10:28:43;102032.25;;;8.07;85.70
26443;BME280;5563;52.296;6.806;2023-02-20T10:31:35;102026.94;;;8.07;85.61
26443;BME280;5563;52.296;6.806;2023-02-20T10:34:15;102018.22;;;8.05;85.68
26443;BME280;5563;52.296;6.806;2023-02-20T10:37:02;102021.88;;;8.03;85.80
26443;BME280;5563;52.296;6.806;2023-02-20T10:39:37;102023.03;;;7.97;85.68
26443;BME280;5563;52.296;6.806;2023-02-20T10:42:18;102058.94;;;8.21;85.98
26443;BME280;5563;52.296;6.806;2023-02-20T10:45:00;102004.38;;;7.99;86.11
26443;BME280;5563;52.296;6.806;2023-02-20T10:47:39;102039.53;;;8.21;86.03
26443;BME280;5563;52.296;6.806;2023-02-20T10:50:22;102032.13;;;8.10;85.92
26443;BME280;5563;52.296;6.806;2023-02-20T10:53:34;102024.44;;;8.04;85.80
26443;BME280;5563;52.296;6.806;2023-02-20T10:56:10;102054.50;;;8.22;85.71
26443;BME280;5563;52.296;6.806;2023-02-20T11:01:28;101999.75;;;8.19;85.79
26443;BME280;5563;52.296;6.806;2023-02-20T11:04:31;102006.59;;;8.23;85.48
26443;BME280;5563;52.296;6.806;2023-02-20T11:07:14;102021.41;;;8.29;85.48
26443;BME280;5563;52.296;6.806;2023-02-20T11:09:44;102002.41;;;8.19;85.60
26443;BME280;5563;52.296;6.806;2023-02-20T11:12:26;101985.53;;;8.20;85.73
26443;BME280;5563;52.296;6.806;2023-02-20T11:15:00;101994.50;;;8.18;85.50
26443;BME280;5563;52.296;6.806;2023-02-20T11:17:38;102010.44;;;8.18;85.52
26443;BME280;5563;52.296;6.806;2023-02-20T11:23:10;102028.19;;;8.34;85.57
26443;BME280;5563;52.296;6.806;2023-02-20T11:26:32;102004.44;;;8.14;85.45
26443;BME280;5563;52.296;6.806;2023-02-20T11:31:43;102035.38;;;8.15;85.62
26443;BME280;5563;52.296;6.806;2023-02-20T11:34:23;102033.59;;;8.16;85.89
26443;BME280;5563;52.296;6.806;2023-02-20T11:37:04;102044.44;;;8.28;86.04
26443;BME280;5563;52.296;6.806;2023-02-20T11:39:32;102031.16;;;8.28;86.08
26443;BME280;5563;52.296;6.806;2023-02-20T11:42:11;102002.28;;;8.05;86.20
26443;BME280;5563;52.296;6.806;2023-02-20T11:45:11;102002.91;;;8.10;85.89
26443;BME280;5563;52.296;6.806;2023-02-20T11:47:39;102004.75;;;8.08;85.95
26443;BME280;5563;52.296;6.806;2023-02-20T11:50:16;101995.22;;;8.04;86.30
26443;BME280;5563;52.296;6.806;2023-02-20T11:52:58;101997.88;;;8.04;86.00
26443;BME280;5563;52.296;6.806;2023-02-20T11:55:33;102010.53;;;8.16;86.19
26443;BME280;5563;52.296;6.806;2023-02-20T11:58:03;102021.00;;;8.19;86.27
26443;BME280;5563;52.296;6.806;2023-02-20T12:00:46;101991.50;;;8.08;86.28
26443;BME280;5563;52.296;6.806;2023-02-20T12:03:23;101985.84;;;8.14;86.19
26443;BME280;5563;52.296;6.806;2023-02-20T12:05:58;102016.69;;;8.34;86.38
26443;BME280;5563;52.296;6.806;2023-02-20T12:11:20;101996.06;;;8.22;86.50
26443;BME280;5563;52.296;6.806;2023-02-20T12:13:56;101998.59;;;8.25;86.23
26443;BME280;5563;52.296;6.806;2023-02-20T12:22:17;101982.47;;;8.11;86.46
26443;BME280;5563;52.296;6.806;2023-02-20T12:25:16;102016.97;;;8.29;86.51
26443;BME280;5563;52.296;6.806;2023-02-20T12:31:24;102007.25;;;8.28;86.78
26443;BME280;5563;52.296;6.806;2023-02-20T12:34:13;101973.06;;;8.05;86.51
26443;BME280;5563;52.296;6.806;2023-02-20T12:37:07;101978.22;;;8.08;86.71
26443;BME280;5563;52.296;6.806;2023-02-20T12:40:01;102009.06;;;8.28;86.58
26443;BME280;5563;52.296;6.806;2023-02-20T12:46:03;102002.09;;;8.25;86.64
26443;BME280;5563;52.296;6.806;2023-02-20T12:48:56;101971.03;;;8.10;86.44
26443;BME280;5563;52.296;6.806;2023-02-20T12:51:52;102013.53;;;8.27;86.68
26443;BME280;5563;52.296;6.806;2023-02-20T12:54:41;101970.41;;;8.05;86.73
26443;BME280;5563;52.296;6.806;2023-02-20T13:00:06;101996.47;;;8.14;86.61
26443;BME280;5563;52.296;6.806;2023-02-20T13:02:58;101978.81;;;8.13;86.73
26443;BME280;5563;52.296;6.806;2023-02-20T13:05:37;101947.00;;;7.96;86.70
26443;BME280;5563;52.296;6.806;2023-02-20T13:08:31;101944.94;;;8.01;86.82
26443;BME280;5563;52.296;6.806;2023-02-20T13:11:13;101954.38;;;8.07;86.84
26443;BME280;5563;52.296;6.806;2023-02-20T13:17:12;101968.84;;;8.01;87.10
26443;BME280;5563;52.296;6.806;2023-02-20T13:20:03;101987.09;;;8.07;87.09
26443;BME280;5563;52.296;6.806;2023-02-20T13:22:41;101990.00;;;8.03;87.33
26443;BME280;5563;52.296;6.806;2023-02-20T13:31:17;101990.31;;;8.14;87.37
26443;BME280;5563;52.296;6.806;2023-02-20T13:36:49;101938.06;;;7.97;87.41
26443;BME280;5563;52.296;6.806;2023-02-20T13:39:36;101929.94;;;8.00;87.35
26443;BME280;5563;52.296;6.806;2023-02-20T13:42:30;101947.63;;;8.17;87.10
26443;BME280;5563;52.296;6.806;2023-02-20T13:45:41;101963.50;;;8.18;87.22
26443;BME280;5563;52.296;6.806;2023-02-20T13:53:53;101969.50;;;8.22;86.96
26443;BME280;5563;52.296;6.806;2023-02-20T13:59:11;101908.53;;;8.03;86.72
26443;BME280;5563;52.296;6.806;2023-02-20T14:02:02;101939.84;;;8.14;87.10
26443;BME280;5563;52.296;6.806;2023-02-20T14:07:58;101942.66;;;8.28;86.86
26443;BME280;5563;52.296;6.806;2023-02-20T14:10:36;101929.72;;;8.20;86.89
26443;BME280;5563;52.296;6.806;2023-02-20T14:13:13;101897.56;;;8.09;86.81
26443;BME280;5563;52.296;6.806;2023-02-20T14:15:51;101936.16;;;8.33;86.77
26443;BME280;5563;52.296;6.806;2023-02-20T14:18:32;101914.53;;;8.24;86.57
26443;BME280;5563;52.296;6.806;2023-02-20T14:23:41;101885.34;;;8.22;86.43
26443;BME280;5563;52.296;6.806;2023-02-20T14:26:23;101873.84;;;8.22;86.24
26443;BME280;5563;52.296;6.806;2023-02-20T14:28:58;101892.09;;;8.29;86.33
26443;BME280;5563;52.296;6.806;2023-02-20T14:34:07;101874.50;;;8.27;85.99
26443;BME280;5563;52.296;6.806;2023-02-20T14:42:14;101909.22;;;8.55;85.94
26443;BME280;5563;52.296;6.806;2023-02-20T14:44:57;101884.63;;;8.36;85.84
26443;BME280;5563;52.296;6.806;2023-02-20T14:47:26;101921.50;;;8.57;85.81
26443;BME280;5563;52.296;6.806;2023-02-20T14:50:22;101914.41;;;8.58;85.72
26443;BME280;5563;52.296;6.806;2023-02-20T14:53:20;101911.88;;;8.55;85.78
26443;BME280;5563;52.296;6.806;2023-02-20T14:55:53;101913.34;;;8.60;85.60
26443;BME280;5563;52.296;6.806;2023-02-20T14:58:21;101898.34;;;8.44;85.64
26443;BME280;5563;52.296;6.806;2023-02-20T15:00:57;101886.84;;;8.43;85.38
26443;BME280;5563;52.296;6.806;2023-02-20T15:03:27;101885.91;;;8.44;85.50
26443;BME280;5563;52.296;6.806;2023-02-20T15:06:16;101886.84;;;8.43;85.39
26443;BME280;5563;52.296;6.806;2023-02-20T15:08:55;101894.50;;;8.49;85.34
26443;BME280;5563;52.296;6.806;2023-02-20T15:11:54;101895.34;;;8.50;85.49
26443;BME280;5563;52.296;6.806;2023-02-20T15:14:28;101893.47;;;8.52;85.15
26443;BME280;5563;52.296;6.806;2023-02-20T15:17:23;101907.63;;;8.68;85.12
26443;BME280;5563;52.296;6.806;2023-02-20T15:19:51;101887.03;;;8.56;85.36
26443;BME280;5563;52.296;6.806;2023-02-20T15:22:34;101862.44;;;8.52;85.39
26443;BME280;5563;52.296;6.806;2023-02-20T15:25:30;101872.00;;;8.55;84.98
26443;BME280;5563;52.296;6.806;2023-02-20T15:33:36;101882.59;;;8.56;85.09
26443;BME280;5563;52.296;6.806;2023-02-20T15:36:14;101878.19;;;8.55;85.00
26443;BME280;5563;52.296;6.806;2023-02-20T15:38:46;101896.56;;;8.60;85.17
26443;BME280;5563;52.296;6.806;2023-02-20T15:41:21;101892.59;;;8.51;85.27
26443;BME280;5563;52.296;6.806;2023-02-20T15:43:55;101883.19;;;8.46;85.25
26443;BME280;5563;52.296;6.806;2023-02-20T15:46:25;101919.28;;;8.65;85.42